sensor_id;sensor_type;location;lat;lon;timestamp;temperature;humidity
9666;DHT22;4871;52.004;5.924;2023-07-29T00:00:01;19.2;71.6
9666;DHT22;4871;52.004;5.924;2023-07-29T00:01:01;19.2;71.8
9666;DHT22;4871;52.004;5.924;2023-07-29T00:02:00;19.2;71.7
9666;DHT22;4871;52.004;5.924;2023-07-29T00:03:00;19.2;71.9
9666;DHT22;4871;52.004;5.924;2023-07-29T00:04:00;19.2;71.6
9666;DHT22;4871;52.004;5.924;2023-07-29T00:05:00;19.2;71.6
9666;DHT22;4871;52.004;5.924;2023-07-29T00:06:00;19.2;71.8
9666;DHT22;4871;52.004;5.924;2023-07-29T00:07:00;19.2;71.8
9666;DHT22;4871;52.004;5.924;2023-07-29T00:08:00;19.1;71.9
9666;DHT22;4871;52.004;5.924;2023-07-29T00:09:00;19.1;71.4
9666;DHT22;4871;52.004;5.924;2023-07-29T00:10:00;19.2;71.7
9666;DHT22;4871;52.004;5.924;2023-07-29T00:11:00;19.1;71.7
9666;DHT22;4871;52.004;5.924;2023-07-29T00:12:00;19.1;71.8
9666;DHT22;4871;52.004;5.924;2023-07-29T00:13:00;19.1;71.7
9666;DHT22;4871;52.004;5.924;2023-07-29T00:14:00;19.1;71.8
9666;DHT22;4871;52.004;5.924;2023-07-29T00:15:00;19.1;71.6
9666;DHT22;4871;52.004;5.924;2023-07-29T00:16:00;19.1;71.7
9666;DHT22;4871;52.004;5.924;2023-07-29T00:17:00;19.1;71.5
9666;DHT22;4871;52.004;5.924;2023-07-29T00:18:00;19.1;71.8
9666;DHT22;4871;52.004;5.924;2023-07-29T00:19:00;19.1;71.6
9666;DHT22;4871;52.004;5.924;2023-07-29T00:20:00;19.1;71.7
9666;DHT22;4871;52.004;5.924;2023-07-29T00:21:00;19.1;71.7
9666;DHT22;4871;52.004;5.924;2023-07-29T00:22:00;19.1;71.6
9666;DHT22;4871;52.004;5.924;2023-07-29T00:23:01;19.0;71.4
9666;DHT22;4871;52.004;5.924;2023-07-29T00:24:01;19.1;71.7
9666;DHT22;4871;52.004;5.924;2023-07-29T00:25:00;19.1;71.7
9666;DHT22;4871;52.004;5.924;2023-07-29T00:26:00;19.0;71.9
9666;DHT22;4871;52.004;5.924;2023-07-29T00:27:00;19.0;71.7
9666;DHT22;4871;52.004;5.924;2023-07-29T00:28:00;19.1;71.6
9666;DHT22;4871;52.004;5.924;2023-07-29T00:29:00;19.0;71.7
9666;DHT22;4871;52.004;5.924;2023-07-29T00:30:00;19.0;71.4
9666;DHT22;4871;52.004;5.924;2023-07-29T00:31:01;19.0;71.8
9666;DHT22;4871;52.004;5.924;2023-07-29T00:32:00;19.0;71.7
9666;DHT22;4871;52.004;5.924;2023-07-29T00:33:00;19.0;71.6
9666;DHT22;4871;52.004;5.924;2023-07-29T00:34:00;19.0;71.7
9666;DHT22;4871;52.004;5.924;2023-07-29T00:35:01;19.0;71.6
9666;DHT22;4871;52.004;5.924;2023-07-29T00:36:01;19.0;71.4
9666;DHT22;4871;52.004;5.924;2023-07-29T00:37:00;19.0;71.5
9666;DHT22;4871;52.004;5.924;2023-07-29T00:38:00;19.0;71.5
9666;DHT22;4871;52.004;5.924;2023-07-29T00:39:00;19.0;71.5
9666;DHT22;4871;52.004;5.924;2023-07-29T00:40:00;19.0;71.6
9666;DHT22;4871;52.004;5.924;2023-07-29T00:41:02;19.0;71.6
9666;DHT22;4871;52.004;5.924;2023-07-29T00:42:00;18.9;71.6
9666;DHT22;4871;52.004;5.924;2023-07-29T00:43:00;18.9;71.4
9666;DHT22;4871;52.004;5.924;2023-07-29T00:44:00;18.9;71.7
9666;DHT22;4871;52.004;5.924;2023-07-29T00:45:00;18.9;71.7
9666;DHT22;4871;52.004;5.924;2023-07-29T00:46:00;18.9;71.6
9666;DHT22;4871;52.004;5.924;2023-07-29T00:47:02;18.9;71.7
9666;DHT22;4871;52.004;5.924;2023-07-29T00:48:01;18.9;71.6
9666;DHT22;4871;52.004;5.924;2023-07-29T00:49:00;18.9;71.7
9666;DHT22;4871;52.004;5.924;2023-07-29T00:50:01;18.9;71.7
9666;DHT22;4871;52.004;5.924;2023-07-29T00:51:00;18.9;71.7
9666;DHT22;4871;52.004;5.924;2023-07-29T00:52:00;18.9;71.7
9666;DHT22;4871;52.004;5.924;2023-07-29T00:53:00;18.8;71.6
9666;DHT22;4871;52.004;5.924;2023-07-29T00:54:00;18.8;71.8
9666;DHT22;4871;52.004;5.924;2023-07-29T00:55:00;18.8;71.8
9666;DHT22;4871;52.004;5.924;2023-07-29T00:56:00;18.8;71.4
9666;DHT22;4871;52.004;5.924;2023-07-29T00:57:00;18.8;71.6
9666;DHT22;4871;52.004;5.924;2023-07-29T00:58:00;18.8;71.8
9666;DHT22;4871;52.004;5.924;2023-07-29T00:59:02;18.8;71.6
9666;DHT22;4871;52.004;5.924;2023-07-29T01:00:01;18.8;71.6
9666;DHT22;4871;52.004;5.924;2023-07-29T01:01:00;18.8;71.9
9666;DHT22;4871;52.004;5.924;2023-07-29T01:02:00;18.8;71.7
9666;DHT22;4871;52.004;5.924;2023-07-29T01:03:00;18.7;71.8
9666;DHT22;4871;52.004;5.924;2023-07-29T01:04:00;18.7;71.9
9666;DHT22;4871;52.004;5.924;2023-07-29T01:05:01;18.7;71.9
9666;DHT22;4871;52.004;5.924;2023-07-29T01:06:09;18.7;71.6
9666;DHT22;4871;52.004;5.924;2023-07-29T01:07:16;18.7;72.0
9666;DHT22;4871;52.004;5.924;2023-07-29T01:08:06;18.7;71.9
9666;DHT22;4871;52.004;5.924;2023-07-29T01:09:02;18.7;71.9
9666;DHT22;4871;52.004;5.924;2023-07-29T01:10:02;18.7;71.9
9666;DHT22;4871;52.004;5.924;2023-07-29T01:11:05;18.7;71.8
9666;DHT22;4871;52.004;5.924;2023-07-29T01:12:05;18.6;71.9
9666;DHT22;4871;52.004;5.924;2023-07-29T01:13:04;18.6;71.8
9666;DHT22;4871;52.004;5.924;2023-07-29T01:14:04;18.6;71.9
9666;DHT22;4871;52.004;5.924;2023-07-29T01:15:06;18.6;71.8
9666;DHT22;4871;52.004;5.924;2023-07-29T01:16:02;18.6;71.6
9666;DHT22;4871;52.004;5.924;2023-07-29T01:17:03;18.6;71.7
9666;DHT22;4871;52.004;5.924;2023-07-29T01:18:04;18.6;71.6
9666;DHT22;4871;52.004;5.924;2023-07-29T01:19:04;18.6;71.7
9666;DHT22;4871;52.004;5.924;2023-07-29T01:20:07;18.6;71.7
9666;DHT22;4871;52.004;5.924;2023-07-29T01:21:04;18.6;71.7
9666;DHT22;4871;52.004;5.924;2023-07-29T01:22:01;18.7;71.4
9666;DHT22;4871;52.004;5.924;2023-07-29T01:23:00;18.7;71.6
9666;DHT22;4871;52.004;5.924;2023-07-29T01:24:00;18.6;71.6
9666;DHT22;4871;52.004;5.924;2023-07-29T01:25:00;18.6;71.7
9666;DHT22;4871;52.004;5.924;2023-07-29T01:26:01;18.6;71.5
9666;DHT22;4871;52.004;5.924;2023-07-29T01:27:01;18.6;71.5
9666;DHT22;4871;52.004;5.924;2023-07-29T01:28:00;18.6;71.7
9666;DHT22;4871;52.004;5.924;2023-07-29T01:29:00;18.6;71.7
9666;DHT22;4871;52.004;5.924;2023-07-29T01:30:01;18.6;71.8
9666;DHT22;4871;52.004;5.924;2023-07-29T01:31:04;18.6;71.8
9666;DHT22;4871;52.004;5.924;2023-07-29T01:32:06;18.6;71.6
9666;DHT22;4871;52.004;5.924;2023-07-29T01:33:04;18.6;71.7
9666;DHT22;4871;52.004;5.924;2023-07-29T01:34:06;18.6;71.8
9666;DHT22;4871;52.004;5.924;2023-07-29T01:35:10;18.6;71.4
9666;DHT22;4871;52.004;5.924;2023-07-29T01:36:03;18.6;71.7
9666;DHT22;4871;52.004;5.924;2023-07-29T01:37:05;18.6;71.8
9666;DHT22;4871;52.004;5.924;2023-07-29T01:38:03;18.7;71.5
9666;DHT22;4871;52.004;5.924;2023-07-29T01:39:02;18.6;71.6
9666;DHT22;4871;52.004;5.924;2023-07-29T01:40:01;18.6;71.6
9666;DHT22;4871;52.004;5.924;2023-07-29T01:41:02;18.6;71.6
9666;DHT22;4871;52.004;5.924;2023-07-29T01:42:01;18.6;71.6
9666;DHT22;4871;52.004;5.924;2023-07-29T01:43:00;18.6;71.7
9666;DHT22;4871;52.004;5.924;2023-07-29T01:44:01;18.6;71.6
9666;DHT22;4871;52.004;5.924;2023-07-29T01:45:00;18.6;71.7
9666;DHT22;4871;52.004;5.924;2023-07-29T01:46:00;18.7;71.3
9666;DHT22;4871;52.004;5.924;2023-07-29T01:47:00;18.6;71.6
9666;DHT22;4871;52.004;5.924;2023-07-29T01:48:01;18.7;71.5
9666;DHT22;4871;52.004;5.924;2023-07-29T01:49:00;18.6;71.6
9666;DHT22;4871;52.004;5.924;2023-07-29T01:50:00;18.6;71.6
9666;DHT22;4871;52.004;5.924;2023-07-29T01:51:00;18.6;71.7
9666;DHT22;4871;52.004;5.924;2023-07-29T01:52:00;18.6;71.7
9666;DHT22;4871;52.004;5.924;2023-07-29T01:53:00;18.6;71.6
9666;DHT22;4871;52.004;5.924;2023-07-29T01:54:00;18.6;71.6
9666;DHT22;4871;52.004;5.924;2023-07-29T01:55:00;18.6;71.6
9666;DHT22;4871;52.004;5.924;2023-07-29T01:56:01;18.6;71.5
9666;DHT22;4871;52.004;5.924;2023-07-29T01:57:00;18.6;71.6
9666;DHT22;4871;52.004;5.924;2023-07-29T01:58:00;18.6;71.4
9666;DHT22;4871;52.004;5.924;2023-07-29T01:59:00;18.6;71.5
9666;DHT22;4871;52.004;5.924;2023-07-29T02:00:01;18.6;71.5
9666;DHT22;4871;52.004;5.924;2023-07-29T02:01:00;18.6;71.5
9666;DHT22;4871;52.004;5.924;2023-07-29T02:02:00;18.7;71.5
9666;DHT22;4871;52.004;5.924;2023-07-29T02:03:00;18.7;71.5
9666;DHT22;4871;52.004;5.924;2023-07-29T02:04:00;18.6;71.5
9666;DHT22;4871;52.004;5.924;2023-07-29T02:05:00;18.6;71.5
9666;DHT22;4871;52.004;5.924;2023-07-29T02:06:00;18.6;71.6
9666;DHT22;4871;52.004;5.924;2023-07-29T02:07:00;18.6;71.5
9666;DHT22;4871;52.004;5.924;2023-07-29T02:08:00;18.6;71.5
9666;DHT22;4871;52.004;5.924;2023-07-29T02:09:00;18.7;71.5
9666;DHT22;4871;52.004;5.924;2023-07-29T02:10:00;18.7;71.3
9666;DHT22;4871;52.004;5.924;2023-07-29T02:11:00;18.7;71.3
9666;DHT22;4871;52.004;5.924;2023-07-29T02:12:00;18.7;71.4
9666;DHT22;4871;52.004;5.924;2023-07-29T02:13:00;18.7;71.5
9666;DHT22;4871;52.004;5.924;2023-07-29T02:14:00;18.7;71.4
9666;DHT22;4871;52.004;5.924;2023-07-29T02:15:00;18.7;71.3
9666;DHT22;4871;52.004;5.924;2023-07-29T02:16:00;18.6;71.4
9666;DHT22;4871;52.004;5.924;2023-07-29T02:17:00;18.7;71.3
9666;DHT22;4871;52.004;5.924;2023-07-29T02:18:02;18.7;71.3
9666;DHT22;4871;52.004;5.924;2023-07-29T02:19:00;18.7;71.2
9666;DHT22;4871;52.004;5.924;2023-07-29T02:20:00;18.7;71.4
9666;DHT22;4871;52.004;5.924;2023-07-29T02:21:00;18.7;71.4
9666;DHT22;4871;52.004;5.924;2023-07-29T02:22:00;18.7;71.3
9666;DHT22;4871;52.004;5.924;2023-07-29T02:23:00;18.7;71.4
9666;DHT22;4871;52.004;5.924;2023-07-29T02:24:00;18.7;71.3
9666;DHT22;4871;52.004;5.924;2023-07-29T02:25:01;18.7;71.2
9666;DHT22;4871;52.004;5.924;2023-07-29T02:26:00;18.7;71.4
9666;DHT22;4871;52.004;5.924;2023-07-29T02:27:00;18.7;71.2
9666;DHT22;4871;52.004;5.924;2023-07-29T02:28:00;18.7;71.1
9666;DHT22;4871;52.004;5.924;2023-07-29T02:29:00;18.7;71.2
9666;DHT22;4871;52.004;5.924;2023-07-29T02:30:00;18.7;71.1
9666;DHT22;4871;52.004;5.924;2023-07-29T02:31:17;18.7;71.2
9666;DHT22;4871;52.004;5.924;2023-07-29T02:32:00;18.7;71.2
9666;DHT22;4871;52.004;5.924;2023-07-29T02:33:01;18.7;71.1
9666;DHT22;4871;52.004;5.924;2023-07-29T02:34:00;18.7;71.0
9666;DHT22;4871;52.004;5.924;2023-07-29T02:35:00;18.7;71.1
9666;DHT22;4871;52.004;5.924;2023-07-29T02:36:00;18.7;71.0
9666;DHT22;4871;52.004;5.924;2023-07-29T02:37:00;18.8;71.0
9666;DHT22;4871;52.004;5.924;2023-07-29T02:38:00;18.8;70.9
9666;DHT22;4871;52.004;5.924;2023-07-29T02:39:00;18.8;71.0
9666;DHT22;4871;52.004;5.924;2023-07-29T02:40:00;18.7;71.0
9666;DHT22;4871;52.004;5.924;2023-07-29T02:41:00;18.8;71.0
9666;DHT22;4871;52.004;5.924;2023-07-29T02:42:00;18.8;71.0
9666;DHT22;4871;52.004;5.924;2023-07-29T02:43:00;18.8;70.9
9666;DHT22;4871;52.004;5.924;2023-07-29T02:44:01;18.8;70.9
9666;DHT22;4871;52.004;5.924;2023-07-29T02:45:00;18.8;70.7
9666;DHT22;4871;52.004;5.924;2023-07-29T02:46:00;18.8;70.8
9666;DHT22;4871;52.004;5.924;2023-07-29T02:47:00;18.8;70.9
9666;DHT22;4871;52.004;5.924;2023-07-29T02:48:00;18.8;70.9
9666;DHT22;4871;52.004;5.924;2023-07-29T02:49:01;18.8;70.8
9666;DHT22;4871;52.004;5.924;2023-07-29T02:50:00;18.8;70.8
9666;DHT22;4871;52.004;5.924;2023-07-29T02:51:00;18.8;70.9
9666;DHT22;4871;52.004;5.924;2023-07-29T02:52:00;18.8;71.1
9666;DHT22;4871;52.004;5.924;2023-07-29T02:53:01;18.8;71.1
9666;DHT22;4871;52.004;5.924;2023-07-29T02:54:00;18.8;71.3
9666;DHT22;4871;52.004;5.924;2023-07-29T02:55:00;18.8;71.3
9666;DHT22;4871;52.004;5.924;2023-07-29T02:56:00;18.8;71.2
9666;DHT22;4871;52.004;5.924;2023-07-29T02:57:00;18.8;71.2
9666;DHT22;4871;52.004;5.924;2023-07-29T02:58:00;18.8;71.2
9666;DHT22;4871;52.004;5.924;2023-07-29T02:59:01;18.8;71.2
9666;DHT22;4871;52.004;5.924;2023-07-29T03:00:00;18.8;71.1
9666;DHT22;4871;52.004;5.924;2023-07-29T03:01:01;18.8;71.1
9666;DHT22;4871;52.004;5.924;2023-07-29T03:02:00;18.8;71.3
9666;DHT22;4871;52.004;5.924;2023-07-29T03:03:00;18.8;71.3
9666;DHT22;4871;52.004;5.924;2023-07-29T03:04:00;18.8;71.2
9666;DHT22;4871;52.004;5.924;2023-07-29T03:05:00;18.8;71.3
9666;DHT22;4871;52.004;5.924;2023-07-29T03:06:03;18.8;71.4
9666;DHT22;4871;52.004;5.924;2023-07-29T03:07:01;18.8;71.3
9666;DHT22;4871;52.004;5.924;2023-07-29T03:08:00;18.8;71.5
9666;DHT22;4871;52.004;5.924;2023-07-29T03:09:00;18.8;71.5
9666;DHT22;4871;52.004;5.924;2023-07-29T03:10:00;18.8;71.5
9666;DHT22;4871;52.004;5.924;2023-07-29T03:11:05;18.9;71.4
9666;DHT22;4871;52.004;5.924;2023-07-29T03:12:01;18.8;71.4
9666;DHT22;4871;52.004;5.924;2023-07-29T03:13:00;18.8;71.4
9666;DHT22;4871;52.004;5.924;2023-07-29T03:14:00;18.8;71.3
9666;DHT22;4871;52.004;5.924;2023-07-29T03:15:00;18.8;71.3
9666;DHT22;4871;52.004;5.924;2023-07-29T03:16:05;18.8;71.3
9666;DHT22;4871;52.004;5.924;2023-07-29T03:17:02;18.8;71.4
9666;DHT22;4871;52.004;5.924;2023-07-29T03:18:00;18.8;71.2
9666;DHT22;4871;52.004;5.924;2023-07-29T03:19:00;18.8;71.3
9666;DHT22;4871;52.004;5.924;2023-07-29T03:20:00;18.8;71.3
9666;DHT22;4871;52.004;5.924;2023-07-29T03:21:00;18.8;71.2
9666;DHT22;4871;52.004;5.924;2023-07-29T03:22:00;18.8;71.2
9666;DHT22;4871;52.004;5.924;2023-07-29T03:23:00;18.8;71.3
9666;DHT22;4871;52.004;5.924;2023-07-29T03:24:00;18.8;71.3
9666;DHT22;4871;52.004;5.924;2023-07-29T03:25:00;18.8;71.4
9666;DHT22;4871;52.004;5.924;2023-07-29T03:26:02;18.9;71.2
9666;DHT22;4871;52.004;5.924;2023-07-29T03:27:00;18.8;71.3
9666;DHT22;4871;52.004;5.924;2023-07-29T03:28:00;18.8;71.4
9666;DHT22;4871;52.004;5.924;2023-07-29T03:29:00;18.8;71.4
9666;DHT22;4871;52.004;5.924;2023-07-29T03:30:00;18.8;71.4
9666;DHT22;4871;52.004;5.924;2023-07-29T03:31:00;18.8;71.4
9666;DHT22;4871;52.004;5.924;2023-07-29T03:32:00;18.9;71.3
9666;DHT22;4871;52.004;5.924;2023-07-29T03:33:00;18.8;71.4
9666;DHT22;4871;52.004;5.924;2023-07-29T03:34:00;18.8;71.5
9666;DHT22;4871;52.004;5.924;2023-07-29T03:35:00;18.8;71.4
9666;DHT22;4871;52.004;5.924;2023-07-29T03:36:00;18.8;71.4
9666;DHT22;4871;52.004;5.924;2023-07-29T03:37:00;18.8;71.4
9666;DHT22;4871;52.004;5.924;2023-07-29T03:38:00;18.8;71.4
9666;DHT22;4871;52.004;5.924;2023-07-29T03:39:03;18.8;71.4
9666;DHT22;4871;52.004;5.924;2023-07-29T03:40:00;18.8;71.5
9666;DHT22;4871;52.004;5.924;2023-07-29T03:41:02;18.8;71.5
9666;DHT22;4871;52.004;5.924;2023-07-29T03:42:00;18.8;71.5
9666;DHT22;4871;52.004;5.924;2023-07-29T03:43:00;18.8;71.5
9666;DHT22;4871;52.004;5.924;2023-07-29T03:44:00;18.8;71.4
9666;DHT22;4871;52.004;5.924;2023-07-29T03:45:00;18.8;71.3
9666;DHT22;4871;52.004;5.924;2023-07-29T03:46:00;18.8;71.4
9666;DHT22;4871;52.004;5.924;2023-07-29T03:47:00;18.8;71.4
9666;DHT22;4871;52.004;5.924;2023-07-29T03:48:00;18.8;71.4
9666;DHT22;4871;52.004;5.924;2023-07-29T03:49:00;18.8;71.7
9666;DHT22;4871;52.004;5.924;2023-07-29T03:50:02;18.8;71.5
9666;DHT22;4871;52.004;5.924;2023-07-29T03:51:00;18.7;71.5
9666;DHT22;4871;52.004;5.924;2023-07-29T03:52:00;18.8;71.4
9666;DHT22;4871;52.004;5.924;2023-07-29T03:53:00;18.8;71.5
9666;DHT22;4871;52.004;5.924;2023-07-29T03:54:00;18.7;71.7
9666;DHT22;4871;52.004;5.924;2023-07-29T03:55:00;18.8;71.4
9666;DHT22;4871;52.004;5.924;2023-07-29T03:56:00;18.8;71.5
9666;DHT22;4871;52.004;5.924;2023-07-29T03:57:00;18.7;71.4
9666;DHT22;4871;52.004;5.924;2023-07-29T03:58:00;18.7;71.5
9666;DHT22;4871;52.004;5.924;2023-07-29T03:59:02;18.7;71.5
9666;DHT22;4871;52.004;5.924;2023-07-29T04:00:00;18.7;71.5
9666;DHT22;4871;52.004;5.924;2023-07-29T04:01:00;18.7;71.5
9666;DHT22;4871;52.004;5.924;2023-07-29T04:02:00;18.7;71.4
9666;DHT22;4871;52.004;5.924;2023-07-29T04:03:00;18.7;71.4
9666;DHT22;4871;52.004;5.924;2023-07-29T04:04:00;18.7;71.5
9666;DHT22;4871;52.004;5.924;2023-07-29T04:05:00;18.7;71.5
9666;DHT22;4871;52.004;5.924;2023-07-29T04:06:00;18.7;71.7
9666;DHT22;4871;52.004;5.924;2023-07-29T04:07:00;18.7;71.6
9666;DHT22;4871;52.004;5.924;2023-07-29T04:08:00;18.7;71.5
9666;DHT22;4871;52.004;5.924;2023-07-29T04:09:00;18.7;71.6
9666;DHT22;4871;52.004;5.924;2023-07-29T04:10:01;18.7;71.3
9666;DHT22;4871;52.004;5.924;2023-07-29T04:11:00;18.7;71.6
9666;DHT22;4871;52.004;5.924;2023-07-29T04:12:00;18.6;71.6
9666;DHT22;4871;52.004;5.924;2023-07-29T04:13:00;18.7;71.4
9666;DHT22;4871;52.004;5.924;2023-07-29T04:14:00;18.6;71.6
9666;DHT22;4871;52.004;5.924;2023-07-29T04:15:00;18.6;71.7
9666;DHT22;4871;52.004;5.924;2023-07-29T04:16:00;18.6;71.7
9666;DHT22;4871;52.004;5.924;2023-07-29T04:17:00;18.6;71.6
9666;DHT22;4871;52.004;5.924;2023-07-29T04:18:00;18.6;71.6
9666;DHT22;4871;52.004;5.924;2023-07-29T04:19:00;18.6;71.6
9666;DHT22;4871;52.004;5.924;2023-07-29T04:20:00;18.6;71.6
9666;DHT22;4871;52.004;5.924;2023-07-29T04:21:00;18.6;71.6
9666;DHT22;4871;52.004;5.924;2023-07-29T04:22:00;18.6;71.6
9666;DHT22;4871;52.004;5.924;2023-07-29T04:23:00;18.6;71.6
9666;DHT22;4871;52.004;5.924;2023-07-29T04:24:01;18.6;71.5
9666;DHT22;4871;52.004;5.924;2023-07-29T04:25:00;18.6;71.7
9666;DHT22;4871;52.004;5.924;2023-07-29T04:26:00;18.6;71.7
9666;DHT22;4871;52.004;5.924;2023-07-29T04:27:00;18.6;71.6
9666;DHT22;4871;52.004;5.924;2023-07-29T04:28:00;18.6;71.5
9666;DHT22;4871;52.004;5.924;2023-07-29T04:29:00;18.6;71.6
9666;DHT22;4871;52.004;5.924;2023-07-29T04:30:00;18.6;71.6
9666;DHT22;4871;52.004;5.924;2023-07-29T04:31:00;18.6;71.7
9666;DHT22;4871;52.004;5.924;2023-07-29T04:32:01;18.5;71.7
9666;DHT22;4871;52.004;5.924;2023-07-29T04:33:00;18.5;71.6
9666;DHT22;4871;52.004;5.924;2023-07-29T04:34:00;18.5;71.7
9666;DHT22;4871;52.004;5.924;2023-07-29T04:35:00;18.6;71.6
9666;DHT22;4871;52.004;5.924;2023-07-29T04:36:00;18.6;71.6
9666;DHT22;4871;52.004;5.924;2023-07-29T04:37:00;18.5;71.6
9666;DHT22;4871;52.004;5.924;2023-07-29T04:38:00;18.5;71.9
9666;DHT22;4871;52.004;5.924;2023-07-29T04:39:00;18.5;71.8
9666;DHT22;4871;52.004;5.924;2023-07-29T04:40:00;18.5;71.7
9666;DHT22;4871;52.004;5.924;2023-07-29T04:41:02;18.5;71.7
9666;DHT22;4871;52.004;5.924;2023-07-29T04:42:00;18.6;71.5
9666;DHT22;4871;52.004;5.924;2023-07-29T04:43:00;18.6;71.5
9666;DHT22;4871;52.004;5.924;2023-07-29T04:44:00;18.6;71.5
9666;DHT22;4871;52.004;5.924;2023-07-29T04:45:00;18.6;71.4
9666;DHT22;4871;52.004;5.924;2023-07-29T04:46:00;18.6;71.3
9666;DHT22;4871;52.004;5.924;2023-07-29T04:47:00;18.6;71.4
9666;DHT22;4871;52.004;5.924;2023-07-29T04:48:00;18.5;71.4
9666;DHT22;4871;52.004;5.924;2023-07-29T04:49:00;18.5;71.4
9666;DHT22;4871;52.004;5.924;2023-07-29T04:50:00;18.5;71.5
9666;DHT22;4871;52.004;5.924;2023-07-29T04:51:00;18.5;71.5
9666;DHT22;4871;52.004;5.924;2023-07-29T04:52:00;18.5;71.5
9666;DHT22;4871;52.004;5.924;2023-07-29T04:53:00;18.5;71.5
9666;DHT22;4871;52.004;5.924;2023-07-29T04:54:00;18.5;71.5
9666;DHT22;4871;52.004;5.924;2023-07-29T04:55:00;18.5;71.6
9666;DHT22;4871;52.004;5.924;2023-07-29T04:56:00;18.5;71.7
9666;DHT22;4871;52.004;5.924;2023-07-29T04:57:00;18.5;71.6
9666;DHT22;4871;52.004;5.924;2023-07-29T04:58:00;18.5;71.4
9666;DHT22;4871;52.004;5.924;2023-07-29T04:59:00;18.5;71.4
9666;DHT22;4871;52.004;5.924;2023-07-29T05:00:00;18.5;71.4
9666;DHT22;4871;52.004;5.924;2023-07-29T05:01:00;18.6;71.4
9666;DHT22;4871;52.004;5.924;2023-07-29T05:02:00;18.6;71.4
9666;DHT22;4871;52.004;5.924;2023-07-29T05:03:01;18.6;71.4
9666;DHT22;4871;52.004;5.924;2023-07-29T05:04:00;18.6;71.3
9666;DHT22;4871;52.004;5.924;2023-07-29T05:05:00;18.5;71.3
9666;DHT22;4871;52.004;5.924;2023-07-29T05:06:00;18.6;71.2
9666;DHT22;4871;52.004;5.924;2023-07-29T05:07:00;18.6;71.4
9666;DHT22;4871;52.004;5.924;2023-07-29T05:08:00;18.5;71.3
9666;DHT22;4871;52.004;5.924;2023-07-29T05:09:12;18.5;71.6
9666;DHT22;4871;52.004;5.924;2023-07-29T05:10:00;18.5;71.4
9666;DHT22;4871;52.004;5.924;2023-07-29T05:11:00;18.5;71.4
9666;DHT22;4871;52.004;5.924;2023-07-29T05:12:00;18.5;71.6
9666;DHT22;4871;52.004;5.924;2023-07-29T05:13:00;18.5;71.5
9666;DHT22;4871;52.004;5.924;2023-07-29T05:14:03;18.5;71.8
9666;DHT22;4871;52.004;5.924;2023-07-29T05:15:00;18.4;72.1
9666;DHT22;4871;52.004;5.924;2023-07-29T05:16:00;18.5;72.0
9666;DHT22;4871;52.004;5.924;2023-07-29T05:17:00;18.5;71.8
9666;DHT22;4871;52.004;5.924;2023-07-29T05:18:00;18.5;71.6
9666;DHT22;4871;52.004;5.924;2023-07-29T05:19:00;18.5;71.6
9666;DHT22;4871;52.004;5.924;2023-07-29T05:20:00;18.6;71.5
9666;DHT22;4871;52.004;5.924;2023-07-29T05:21:00;18.6;71.4
9666;DHT22;4871;52.004;5.924;2023-07-29T05:22:00;18.6;71.2
9666;DHT22;4871;52.004;5.924;2023-07-29T05:23:00;18.6;71.3
9666;DHT22;4871;52.004;5.924;2023-07-29T05:24:00;18.6;71.6
9666;DHT22;4871;52.004;5.924;2023-07-29T05:25:00;18.6;71.5
9666;DHT22;4871;52.004;5.924;2023-07-29T05:26:00;18.6;71.8
9666;DHT22;4871;52.004;5.924;2023-07-29T05:27:00;18.6;71.6
9666;DHT22;4871;52.004;5.924;2023-07-29T05:28:00;18.6;71.6
9666;DHT22;4871;52.004;5.924;2023-07-29T05:29:00;18.6;71.8
9666;DHT22;4871;52.004;5.924;2023-07-29T05:30:00;18.6;71.6
9666;DHT22;4871;52.004;5.924;2023-07-29T05:31:00;18.6;71.7
9666;DHT22;4871;52.004;5.924;2023-07-29T05:32:00;18.6;71.6
9666;DHT22;4871;52.004;5.924;2023-07-29T05:33:00;18.6;71.6
9666;DHT22;4871;52.004;5.924;2023-07-29T05:34:00;18.6;71.7
9666;DHT22;4871;52.004;5.924;2023-07-29T05:35:00;18.6;71.5
9666;DHT22;4871;52.004;5.924;2023-07-29T05:36:00;18.6;71.5
9666;DHT22;4871;52.004;5.924;2023-07-29T05:37:00;18.6;71.6
9666;DHT22;4871;52.004;5.924;2023-07-29T05:38:00;18.6;71.5
9666;DHT22;4871;52.004;5.924;2023-07-29T05:39:00;18.7;71.5
9666;DHT22;4871;52.004;5.924;2023-07-29T05:40:00;18.6;71.7
9666;DHT22;4871;52.004;5.924;2023-07-29T05:41:00;18.6;71.6
9666;DHT22;4871;52.004;5.924;2023-07-29T05:42:02;18.6;71.7
9666;DHT22;4871;52.004;5.924;2023-07-29T05:43:00;18.7;71.7
9666;DHT22;4871;52.004;5.924;2023-07-29T05:44:00;18.7;71.6
9666;DHT22;4871;52.004;5.924;2023-07-29T05:45:00;18.7;71.7
9666;DHT22;4871;52.004;5.924;2023-07-29T05:46:00;18.7;71.7
9666;DHT22;4871;52.004;5.924;2023-07-29T05:47:00;18.7;71.8
9666;DHT22;4871;52.004;5.924;2023-07-29T05:48:00;18.7;71.7
9666;DHT22;4871;52.004;5.924;2023-07-29T05:49:00;18.7;72.0
9666;DHT22;4871;52.004;5.924;2023-07-29T05:50:04;18.7;71.9
9666;DHT22;4871;52.004;5.924;2023-07-29T05:51:00;18.7;71.6
9666;DHT22;4871;52.004;5.924;2023-07-29T05:52:00;18.7;71.6
9666;DHT22;4871;52.004;5.924;2023-07-29T05:53:00;18.7;71.7
9666;DHT22;4871;52.004;5.924;2023-07-29T05:54:00;18.7;71.7
9666;DHT22;4871;52.004;5.924;2023-07-29T05:55:00;18.7;71.8
9666;DHT22;4871;52.004;5.924;2023-07-29T05:56:00;18.7;71.6
9666;DHT22;4871;52.004;5.924;2023-07-29T05:57:00;18.7;71.7
9666;DHT22;4871;52.004;5.924;2023-07-29T05:58:00;18.7;71.6
9666;DHT22;4871;52.004;5.924;2023-07-29T05:59:00;18.8;71.7
9666;DHT22;4871;52.004;5.924;2023-07-29T06:00:00;18.8;71.7
9666;DHT22;4871;52.004;5.924;2023-07-29T06:01:00;18.8;71.7
9666;DHT22;4871;52.004;5.924;2023-07-29T06:02:00;18.8;71.8
9666;DHT22;4871;52.004;5.924;2023-07-29T06:03:00;18.8;72.1
9666;DHT22;4871;52.004;5.924;2023-07-29T06:04:00;18.8;71.7
9666;DHT22;4871;52.004;5.924;2023-07-29T06:05:03;18.8;71.9
9666;DHT22;4871;52.004;5.924;2023-07-29T06:06:00;18.8;71.6
9666;DHT22;4871;52.004;5.924;2023-07-29T06:07:00;18.9;71.7
9666;DHT22;4871;52.004;5.924;2023-07-29T06:08:00;18.9;71.2
9666;DHT22;4871;52.004;5.924;2023-07-29T06:09:00;18.9;71.2
9666;DHT22;4871;52.004;5.924;2023-07-29T06:10:00;18.9;71.5
9666;DHT22;4871;52.004;5.924;2023-07-29T06:11:00;18.9;71.8
9666;DHT22;4871;52.004;5.924;2023-07-29T06:12:00;18.9;71.9
9666;DHT22;4871;52.004;5.924;2023-07-29T06:13:00;18.9;71.6
9666;DHT22;4871;52.004;5.924;2023-07-29T06:14:00;19.0;71.3
9666;DHT22;4871;52.004;5.924;2023-07-29T06:15:00;19.0;71.7
9666;DHT22;4871;52.004;5.924;2023-07-29T06:16:00;19.0;71.5
9666;DHT22;4871;52.004;5.924;2023-07-29T06:17:00;19.0;71.5
9666;DHT22;4871;52.004;5.924;2023-07-29T06:18:00;19.0;71.3
9666;DHT22;4871;52.004;5.924;2023-07-29T06:19:00;19.0;71.2
9666;DHT22;4871;52.004;5.924;2023-07-29T06:20:00;19.0;71.9
9666;DHT22;4871;52.004;5.924;2023-07-29T06:21:00;19.0;71.8
9666;DHT22;4871;52.004;5.924;2023-07-29T06:22:01;19.1;72.4
9666;DHT22;4871;52.004;5.924;2023-07-29T06:23:00;19.2;72.6
9666;DHT22;4871;52.004;5.924;2023-07-29T06:24:00;19.2;72.5
9666;DHT22;4871;52.004;5.924;2023-07-29T06:25:00;19.3;72.6
9666;DHT22;4871;52.004;5.924;2023-07-29T06:26:01;19.5;71.6
9666;DHT22;4871;52.004;5.924;2023-07-29T06:27:00;19.5;71.8
9666;DHT22;4871;52.004;5.924;2023-07-29T06:28:00;19.5;71.7
9666;DHT22;4871;52.004;5.924;2023-07-29T06:29:00;19.6;71.4
9666;DHT22;4871;52.004;5.924;2023-07-29T06:30:00;19.6;71.3
9666;DHT22;4871;52.004;5.924;2023-07-29T06:31:00;19.7;70.9
9666;DHT22;4871;52.004;5.924;2023-07-29T06:32:00;19.7;71.3
9666;DHT22;4871;52.004;5.924;2023-07-29T06:33:00;19.8;71.1
9666;DHT22;4871;52.004;5.924;2023-07-29T06:34:00;19.9;70.8
9666;DHT22;4871;52.004;5.924;2023-07-29T06:35:00;19.9;70.6
9666;DHT22;4871;52.004;5.924;2023-07-29T06:36:00;20.0;70.6
9666;DHT22;4871;52.004;5.924;2023-07-29T06:37:00;20.1;70.7
9666;DHT22;4871;52.004;5.924;2023-07-29T06:38:00;20.2;70.7
9666;DHT22;4871;52.004;5.924;2023-07-29T06:39:00;20.3;70.3
9666;DHT22;4871;52.004;5.924;2023-07-29T06:40:00;20.4;70.6
9666;DHT22;4871;52.004;5.924;2023-07-29T06:41:00;20.5;69.6
9666;DHT22;4871;52.004;5.924;2023-07-29T06:42:00;20.6;69.1
9666;DHT22;4871;52.004;5.924;2023-07-29T06:43:00;20.7;69.2
9666;DHT22;4871;52.004;5.924;2023-07-29T06:44:00;20.7;69.1